createdAt,value
2022-09-21T00:01:20.781Z,8.77
2022-09-21T00:03:48.242Z,7.72
2022-09-21T00:06:17.840Z,8.25
2022-09-21T00:08:45.937Z,7.28
2022-09-21T00:11:17.219Z,7.32
2022-09-21T00:13:45.942Z,8.18
2022-09-21T00:16:13.261Z,7.82
2022-09-21T00:18:40.146Z,6.97
2022-09-21T00:21:11.589Z,7.25
2022-09-21T00:23:39.258Z,7.45
2022-09-21T00:26:17.636Z,7.38
2022-09-21T00:28:46.208Z,7.82
2022-09-21T00:31:15.524Z,6.88
2022-09-21T00:33:46.369Z,8.90
2022-09-21T00:36:16.828Z,8.32
2022-09-21T00:38:44.205Z,8.43
2022-09-21T00:41:12.204Z,7.43
2022-09-21T00:43:46.144Z,8.55
2022-09-21T00:46:30.157Z,10.25
2022-09-21T00:48:58.027Z,11.63
2022-09-21T00:51:25.901Z,11.40
2022-09-21T00:53:56.417Z,11.20
2022-09-21T00:56:23.499Z,12.13
2022-09-21T00:58:51.654Z,12.82
2022-09-21T01:01:18.875Z,11.35
2022-09-21T01:03:49.885Z,12.50
2022-09-21T01:06:19.571Z,11.90
2022-09-21T01:08:52.840Z,11.05
2022-09-21T01:11:38.347Z,10.88
2022-09-21T01:14:23.801Z,10.95
2022-09-21T01:16:50.596Z,11.02
2022-09-21T01:19:22.992Z,11.85
2022-09-21T01:22:13.035Z,12.27
2022-09-21T01:24:51.378Z,11.55
2022-09-21T01:27:46.551Z,10.73
2022-09-21T01:30:18.410Z,10.95
2022-09-21T01:33:07.743Z,11.43
2022-09-21T01:35:39.429Z,12.88
2022-09-21T01:38:10.435Z,13.63
2022-09-21T01:40:41.461Z,12.52
2022-09-21T01:43:11.447Z,12.82
2022-09-21T01:45:41.473Z,12.88
2022-09-21T01:48:08.872Z,11.77
2022-09-21T01:50:39.047Z,12.52
2022-09-21T01:53:13.851Z,12.60
2022-09-21T01:55:44.947Z,12.57
2022-09-21T01:58:34.429Z,12.43
2022-09-21T02:01:01.545Z,13.13
2022-09-21T02:03:37.601Z,12.88
2022-09-21T02:06:06.513Z,12.27
2022-09-21T02:08:33.835Z,12.02
2022-09-21T02:11:04.193Z,11.70
2022-09-21T02:13:34.354Z,11.63
2022-09-21T02:16:07.081Z,10.88
2022-09-21T02:18:33.951Z,11.68
2022-09-21T02:21:03.914Z,10.73
2022-09-21T02:23:43.800Z,11.55
2022-09-21T02:26:20.405Z,11.25
2022-09-21T02:29:11.930Z,10.10
2022-09-21T02:31:56.112Z,8.73
2022-09-21T02:34:49.582Z,10.00
2022-09-21T02:40:04.256Z,8.43
2022-09-21T02:42:34.581Z,7.57
2022-09-21T02:45:09.122Z,8.20
2022-09-21T02:47:49.729Z,9.32
2022-09-21T02:50:25.199Z,8.18
2022-09-21T02:52:53.229Z,8.43
2022-09-21T02:55:20.222Z,7.78
2022-09-21T02:57:48.435Z,7.90
2022-09-21T03:00:16.252Z,7.75
2022-09-21T03:02:45.173Z,8.40
2022-09-21T03:05:13.736Z,7.85
2022-09-21T03:07:40.704Z,7.22
2022-09-21T03:10:09.372Z,7.30
2022-09-21T03:12:36.839Z,6.57
2022-09-21T03:15:04.841Z,6.72
2022-09-21T03:17:31.736Z,6.82
2022-09-21T03:19:58.619Z,7.82
2022-09-21T03:22:25.636Z,7.60
2022-09-21T03:24:57.593Z,6.95
2022-09-21T03:27:24.678Z,6.60
2022-09-21T03:29:51.634Z,7.60
2022-09-21T03:32:18.682Z,8.38
2022-09-21T03:34:45.514Z,7.13
2022-09-21T03:37:12.475Z,8.20
2022-09-21T03:39:39.510Z,6.90
2022-09-21T03:42:06.480Z,6.85
2022-09-21T03:44:33.284Z,6.85
2022-09-21T03:47:00.315Z,7.82
2022-09-21T03:49:27.189Z,6.78
2022-09-21T03:51:55.256Z,7.57
2022-09-21T03:54:22.096Z,6.72
2022-09-21T03:56:49.015Z,7.03
2022-09-21T03:59:15.982Z,7.90
2022-09-21T04:01:43.507Z,7.53
2022-09-21T04:04:10.863Z,7.45
2022-09-21T04:06:37.803Z,9.90
2022-09-21T04:09:04.904Z,10.27
2022-09-21T04:11:32.544Z,13.40
2022-09-21T04:13:59.913Z,10.02
2022-09-21T04:16:27.642Z,13.65
2022-09-21T04:18:55.224Z,16.83
2022-09-21T04:21:22.437Z,15.13
2022-09-21T04:23:50.280Z,16.17
2022-09-21T04:26:29.185Z,16.00
2022-09-21T04:28:56.835Z,15.95
2022-09-21T04:31:24.912Z,10.95
2022-09-21T04:33:53.237Z,13.25
2022-09-21T04:36:21.772Z,10.10
2022-09-21T04:38:49.175Z,11.05
2022-09-21T04:41:16.685Z,9.55
2022-09-21T04:43:45.167Z,8.10
2022-09-21T04:46:14.544Z,8.60
2022-09-21T04:48:42.068Z,9.18
2022-09-21T04:51:10.273Z,7.30
2022-09-21T04:53:40.490Z,7.03
2022-09-21T04:56:08.866Z,9.45
2022-09-21T04:58:36.005Z,9.57
2022-09-21T05:01:06.760Z,9.75
2022-09-21T05:03:33.874Z,9.60
2022-09-21T05:06:01.117Z,8.27
2022-09-21T05:08:46.911Z,9.18
2022-09-21T05:11:16.111Z,9.32
2022-09-21T05:13:46.489Z,14.57
2022-09-21T05:16:16.985Z,15.32
2022-09-21T05:18:44.876Z,15.68
2022-09-21T05:21:12.702Z,9.38
2022-09-21T05:23:40.910Z,12.32
2022-09-21T05:26:11.694Z,13.23
2022-09-21T05:28:40.283Z,11.27
2022-09-21T05:31:35.245Z,13.88
2022-09-21T05:34:19.576Z,10.88
2022-09-21T05:36:55.237Z,9.80
2022-09-21T05:39:22.430Z,11.93
2022-09-21T05:41:49.838Z,10.32
2022-09-21T05:44:17.127Z,11.25
2022-09-21T05:46:56.054Z,9.88
2022-09-21T05:49:43.079Z,12.45
2022-09-21T05:52:17.086Z,11.68
2022-09-21T05:54:56.719Z,10.15
2022-09-21T05:57:40.050Z,9.85
2022-09-21T06:03:27.006Z,8.40
2022-09-21T06:08:22.150Z,7.93
2022-09-21T06:10:51.598Z,9.70
2022-09-21T06:13:18.703Z,7.93
2022-09-21T06:15:45.570Z,7.45
2022-09-21T06:18:17.572Z,7.47
2022-09-21T06:20:47.850Z,8.65
2022-09-21T06:23:15.484Z,8.52
2022-09-21T06:25:42.399Z,9.15
2022-09-21T06:28:11.981Z,8.52
2022-09-21T06:30:40.961Z,8.25
2022-09-21T06:33:08.535Z,8.30
2022-09-21T06:35:36.453Z,8.23
2022-09-21T06:38:10.337Z,7.93
2022-09-21T06:40:37.799Z,8.88
2022-09-21T06:43:06.118Z,7.65
2022-09-21T06:45:33.416Z,8.20
2022-09-21T06:48:00.428Z,8.93
2022-09-21T06:50:27.498Z,9.55
2022-09-21T06:52:54.507Z,7.80
2022-09-21T06:55:21.379Z,7.57
2022-09-21T06:57:48.279Z,8.02
2022-09-21T07:00:15.430Z,7.57
2022-09-21T07:02:48.305Z,7.38
2022-09-21T07:05:15.117Z,8.13
2022-09-21T07:07:41.988Z,9.00
2022-09-21T07:10:14.563Z,7.47
2022-09-21T07:12:44.954Z,6.93
2022-09-21T07:15:12.029Z,7.22
2022-09-21T07:17:39.928Z,7.47
2022-09-21T07:20:08.270Z,7.95
2022-09-21T07:22:36.030Z,8.05
2022-09-21T07:25:04.205Z,8.13
2022-09-21T07:27:32.240Z,6.75
2022-09-21T07:29:59.224Z,7.22
2022-09-21T07:32:26.230Z,8.30
2022-09-21T07:34:56.452Z,8.07
2022-09-21T07:37:27.004Z,7.38
2022-09-21T07:39:54.317Z,8.18
2022-09-21T07:42:22.896Z,9.50
2022-09-21T07:44:50.936Z,8.70
2022-09-21T07:47:18.239Z,8.27
2022-09-21T07:49:47.030Z,8.68
2022-09-21T07:52:17.991Z,9.75
2022-09-21T07:54:45.305Z,8.05
2022-09-21T07:57:30.919Z,10.15
2022-09-21T08:00:47.401Z,7.40
2022-09-21T08:03:14.332Z,7.47
2022-09-21T08:05:41.417Z,7.55
2022-09-21T08:08:09.075Z,8.10
2022-09-21T08:10:39.547Z,7.70
2022-09-21T08:13:06.442Z,7.75
2022-09-21T08:15:49.263Z,6.93
2022-09-21T08:18:16.852Z,7.15
2022-09-21T08:20:44.128Z,8.13
2022-09-21T08:23:11.921Z,8.20
2022-09-21T08:25:38.781Z,8.25
2022-09-21T08:28:09.642Z,7.28
2022-09-21T08:30:36.952Z,7.22
2022-09-21T08:33:03.903Z,6.75
2022-09-21T08:35:30.751Z,8.38
2022-09-21T08:37:57.580Z,8.07
2022-09-21T08:40:24.547Z,7.82
2022-09-21T08:43:11.481Z,7.85
2022-09-21T08:45:42.500Z,8.00
2022-09-21T08:48:25.237Z,7.22
2022-09-21T08:50:56.739Z,7.22
2022-09-21T08:53:35.108Z,7.65
2022-09-21T08:56:03.058Z,8.00
2022-09-21T08:58:31.332Z,7.75
2022-09-21T09:01:07.316Z,7.43
2022-09-21T09:04:11.739Z,6.60
2022-09-21T09:06:41.774Z,8.32
2022-09-21T09:09:43.645Z,7.32
2022-09-21T09:12:33.466Z,6.70
2022-09-21T09:15:31.071Z,7.60
2022-09-21T09:18:12.589Z,6.93
2022-09-21T09:21:00.392Z,7.30
2022-09-21T09:23:31.483Z,6.47
2022-09-21T09:26:33.416Z,6.75
2022-09-21T09:29:09.357Z,6.05
2022-09-21T09:31:37.810Z,6.18
2022-09-21T09:34:10.545Z,6.78
2022-09-21T09:36:57.977Z,6.30
2022-09-21T09:39:26.933Z,5.60
2022-09-21T09:42:30.953Z,5.80
2022-09-21T09:45:03.619Z,5.38
2022-09-21T09:47:59.140Z,4.80
2022-09-21T09:50:38.425Z,4.45
2022-09-21T09:53:12.261Z,2.40
2022-09-21T09:55:45.220Z,1.63
2022-09-21T10:00:59.123Z,2.05
2022-09-21T10:03:29.298Z,1.77
2022-09-21T10:05:56.692Z,1.70
2022-09-21T10:08:42.040Z,1.50
2022-09-21T10:11:10.651Z,1.20
2022-09-21T10:13:40.022Z,1.30
2022-09-21T10:16:22.205Z,1.02
2022-09-21T10:19:01.620Z,1.00
2022-09-21T10:21:36.146Z,1.20
2022-09-21T10:24:04.751Z,1.08
2022-09-21T10:26:42.836Z,1.60
2022-09-21T10:29:25.535Z,1.25
2022-09-21T10:31:59.878Z,1.35
2022-09-21T10:34:31.491Z,1.33
2022-09-21T10:37:05.840Z,1.23
2022-09-21T10:39:36.785Z,1.40
2022-09-21T10:42:12.373Z,1.30
2022-09-21T10:44:41.810Z,1.52
2022-09-21T10:47:24.303Z,1.42
2022-09-21T10:49:59.052Z,1.50
2022-09-21T10:52:35.788Z,1.40
2022-09-21T10:55:17.123Z,1.13
2022-09-21T11:01:41.883Z,1.40
2022-09-21T11:07:56.113Z,1.05
2022-09-21T11:10:59.287Z,1.35
2022-09-21T11:13:35.487Z,1.40
2022-09-21T11:16:35.579Z,0.80
2022-09-21T11:19:32.185Z,1.33
2022-09-21T11:22:15.694Z,1.38
2022-09-21T11:24:45.755Z,0.85
2022-09-21T11:27:32.420Z,1.10
2022-09-21T11:30:10.921Z,1.30
2022-09-21T11:32:43.820Z,0.90
2022-09-21T11:35:26.976Z,1.33
2022-09-21T11:41:25.250Z,1.15
2022-09-21T11:44:24.567Z,1.00
2022-09-21T11:47:13.155Z,0.93
2022-09-21T11:50:26.316Z,1.02
2022-09-21T11:53:16.520Z,1.35
2022-09-21T11:55:57.906Z,1.05
2022-09-21T11:58:39.981Z,2.65
2022-09-21T12:01:18.959Z,1.65
2022-09-21T12:04:30.565Z,1.50
2022-09-21T12:07:37.824Z,0.95
2022-09-21T12:10:44.789Z,0.93
2022-09-21T12:13:54.255Z,0.77
2022-09-21T12:16:50.712Z,1.08
2022-09-21T12:20:10.612Z,1.00
2022-09-21T12:26:08.833Z,1.23
2022-09-21T12:28:47.162Z,2.08
2022-09-21T12:32:07.360Z,1.10
2022-09-21T12:34:54.201Z,0.98
2022-09-21T12:37:57.846Z,1.42
2022-09-21T12:44:29.300Z,1.05
2022-09-21T12:47:40.169Z,1.03
2022-09-21T12:50:23.177Z,1.45
2022-09-21T12:52:51.914Z,0.90
2022-09-21T12:55:34.103Z,1.88
2022-09-21T12:58:19.456Z,1.40
2022-09-21T13:00:55.334Z,1.35
2022-09-21T13:03:38.092Z,2.03
2022-09-21T13:06:25.250Z,1.63
2022-09-21T13:08:52.596Z,1.45
2022-09-21T13:15:28.560Z,0.93
2022-09-21T13:18:32.520Z,1.48
2022-09-21T13:21:22.142Z,1.33
2022-09-21T13:24:28.249Z,2.30
2022-09-21T13:27:00.869Z,1.35
2022-09-21T13:29:36.809Z,1.73
2022-09-21T13:33:23.504Z,1.25
2022-09-21T13:36:05.065Z,1.70
2022-09-21T13:38:37.774Z,0.90
2022-09-21T13:44:48.675Z,1.92
2022-09-21T13:47:41.143Z,1.55
2022-09-21T13:59:27.494Z,1.08
2022-09-21T14:01:55.434Z,1.33
2022-09-21T14:04:28.546Z,1.50
2022-09-21T14:09:34.853Z,0.80
2022-09-21T14:12:06.462Z,1.35
2022-09-21T14:14:37.352Z,1.25
2022-09-21T14:17:06.829Z,1.38
2022-09-21T14:19:33.613Z,1.08
2022-09-21T14:22:06.475Z,2.10
2022-09-21T14:24:43.020Z,0.93
2022-09-21T14:27:17.671Z,1.83
2022-09-21T14:29:56.305Z,1.08
2022-09-21T14:32:25.702Z,1.30
2022-09-21T14:34:57.265Z,1.42
2022-09-21T14:37:33.363Z,1.58
2022-09-21T14:40:08.440Z,1.45
2022-09-21T14:42:39.771Z,1.40
2022-09-21T14:45:15.374Z,1.40
2022-09-21T14:47:53.819Z,1.50
2022-09-21T14:50:30.854Z,1.85
2022-09-21T14:53:28.272Z,1.50
2022-09-21T14:56:30.340Z,1.70
2022-09-21T14:58:57.196Z,1.33
2022-09-21T15:01:36.056Z,1.70
2022-09-21T15:04:18.179Z,1.35
2022-09-21T15:07:08.855Z,0.95
2022-09-21T15:10:12.401Z,1.55
2022-09-21T15:13:06.616Z,1.58
2022-09-21T15:15:58.359Z,1.55
2022-09-21T15:18:25.884Z,1.38
2022-09-21T15:21:01.855Z,1.92
2022-09-21T15:23:32.567Z,1.42
2022-09-21T15:26:04.699Z,1.35
2022-09-21T15:28:57.868Z,2.10
2022-09-21T15:31:24.382Z,0.80
2022-09-21T15:33:53.243Z,1.30
2022-09-21T15:36:24.959Z,1.25
2022-09-21T15:38:52.961Z,1.38
2022-09-21T15:41:35.004Z,1.83
2022-09-21T15:44:24.632Z,1.58
2022-09-21T15:46:55.788Z,1.00
2022-09-21T15:49:22.849Z,1.45
2022-09-21T15:52:14.337Z,1.50
2022-09-21T15:54:46.657Z,1.38
2022-09-21T15:57:46.236Z,1.45
2022-09-21T16:00:15.923Z,1.20
2022-09-21T16:02:57.186Z,1.20
2022-09-21T16:05:25.741Z,1.58
2022-09-21T16:08:05.671Z,1.25
2022-09-21T16:10:39.001Z,1.55
2022-09-21T16:13:33.052Z,1.30
2022-09-21T16:16:08.382Z,1.92
2022-09-21T16:18:47.500Z,1.42
2022-09-21T16:21:27.931Z,2.05
2022-09-21T16:23:59.269Z,1.30
2022-09-21T16:26:31.669Z,2.15
2022-09-21T16:29:26.594Z,2.92
2022-09-21T16:32:19.067Z,1.90
2022-09-21T16:34:48.347Z,2.00
2022-09-21T16:37:24.461Z,1.70
2022-09-21T16:40:00.880Z,1.98
2022-09-21T16:42:32.823Z,1.60
2022-09-21T16:45:00.050Z,1.70
2022-09-21T16:47:28.128Z,1.40
2022-09-21T16:50:02.677Z,2.20
2022-09-21T16:52:30.687Z,2.05
2022-09-21T16:54:58.951Z,2.60
2022-09-21T16:57:26.682Z,2.15
2022-09-21T16:59:53.577Z,2.83
2022-09-21T17:02:21.245Z,2.15
2022-09-21T17:04:48.289Z,1.40
2022-09-21T17:07:16.984Z,1.77
2022-09-21T17:09:47.680Z,1.52
2022-09-21T17:12:17.644Z,1.50
2022-09-21T17:14:47.073Z,1.77
2022-09-21T17:17:18.655Z,2.42
2022-09-21T17:19:49.968Z,4.38
2022-09-21T17:22:18.195Z,4.25
2022-09-21T17:24:54.989Z,3.20
2022-09-21T17:27:25.376Z,2.22
2022-09-21T17:29:54.114Z,4.57
2022-09-21T17:32:23.067Z,2.38
2022-09-21T17:35:30.427Z,3.30
2022-09-21T17:37:57.926Z,3.50
2022-09-21T17:40:25.376Z,3.38
2022-09-21T17:42:54.439Z,4.90
2022-09-21T17:45:27.634Z,2.92
2022-09-21T17:47:54.771Z,3.63
2022-09-21T17:50:24.031Z,3.22
2022-09-21T17:53:09.471Z,3.85
2022-09-21T17:55:37.694Z,3.53
2022-09-21T17:58:28.918Z,2.88
2022-09-21T18:00:57.116Z,3.10
2022-09-21T18:03:30.178Z,2.25
2022-09-21T18:08:31.315Z,1.45
2022-09-21T18:11:06.570Z,1.83
2022-09-21T18:13:41.348Z,2.10
2022-09-21T18:16:27.137Z,2.53
2022-09-21T18:19:15.092Z,2.35
2022-09-21T18:21:44.295Z,1.70
2022-09-21T18:24:30.837Z,1.58
2022-09-21T18:26:59.313Z,1.70
2022-09-21T18:29:41.991Z,1.50
2022-09-21T18:32:46.458Z,1.40
2022-09-21T18:35:43.893Z,1.85
2022-09-21T18:38:21.257Z,1.50
2022-09-21T18:41:06.915Z,1.40
2022-09-21T18:44:00.619Z,1.25
2022-09-21T18:46:39.779Z,1.45
2022-09-21T18:49:40.923Z,1.60
2022-09-21T18:52:29.691Z,1.60
2022-09-21T18:54:56.661Z,1.75
2022-09-21T18:57:24.156Z,1.33
2022-09-21T18:59:51.465Z,1.88
2022-09-21T19:02:20.394Z,1.40
2022-09-21T19:04:49.311Z,2.08
2022-09-21T19:07:26.331Z,1.40
2022-09-21T19:10:10.889Z,1.65
2022-09-21T19:12:43.771Z,1.38
2022-09-21T19:15:59.325Z,1.80
2022-09-21T19:18:27.394Z,1.98
2022-09-21T19:21:13.518Z,1.95
2022-09-21T19:24:16.384Z,1.75
2022-09-21T19:26:52.314Z,1.52
2022-09-21T19:29:35.353Z,1.83
2022-09-21T19:32:02.331Z,3.35
2022-09-21T19:34:29.699Z,3.22
2022-09-21T19:36:57.398Z,2.97
2022-09-21T19:39:24.820Z,2.47
2022-09-21T19:41:54.701Z,2.40
2022-09-21T19:44:29.783Z,2.85
2022-09-21T19:47:16.832Z,4.00
2022-09-21T19:49:55.030Z,4.20
2022-09-21T19:52:32.840Z,4.45
2022-09-21T19:55:18.486Z,4.43
2022-09-21T19:58:04.627Z,4.50
2022-09-21T20:00:32.454Z,4.10
2022-09-21T20:03:13.845Z,4.10
2022-09-21T20:05:49.227Z,4.10
2022-09-21T20:08:57.153Z,3.33
2022-09-21T20:11:37.658Z,10.13
2022-09-21T20:14:41.399Z,14.73
2022-09-21T20:17:14.258Z,4.55
2022-09-21T20:20:19.239Z,4.50
2022-09-21T20:22:46.236Z,3.97
2022-09-21T20:25:30.043Z,4.10
2022-09-21T20:27:57.399Z,4.68
2022-09-21T20:30:26.761Z,4.28
2022-09-21T20:32:57.117Z,3.78
2022-09-21T20:35:26.691Z,4.00
2022-09-21T20:37:55.690Z,4.65
2022-09-21T20:40:28.868Z,4.03
2022-09-21T20:42:56.675Z,4.38
2022-09-21T20:45:23.727Z,3.70
2022-09-21T20:47:51.747Z,5.25
2022-09-21T20:50:19.225Z,5.07
2022-09-21T20:52:46.103Z,4.70
2022-09-21T20:55:17.209Z,4.10
2022-09-21T20:57:44.666Z,4.63
2022-09-21T21:00:16.111Z,4.50
2022-09-21T21:02:43.307Z,4.60
2022-09-21T21:05:11.264Z,3.97
2022-09-21T21:07:39.880Z,4.40
2022-09-21T21:10:07.203Z,4.38
2022-09-21T21:12:34.152Z,5.10
2022-09-21T21:15:00.982Z,4.70
2022-09-21T21:17:27.776Z,4.85
2022-09-21T21:19:54.669Z,4.05
2022-09-21T21:22:21.502Z,4.80
2022-09-21T21:24:48.631Z,4.65
2022-09-21T21:27:20.142Z,4.55
2022-09-21T21:29:51.634Z,4.10
2022-09-21T21:32:20.279Z,4.60
2022-09-21T21:34:49.587Z,4.38
2022-09-21T21:37:17.409Z,4.28
2022-09-21T21:39:44.670Z,5.22
2022-09-21T21:42:11.705Z,5.03
2022-09-21T21:44:38.840Z,4.00
2022-09-21T21:47:27.472Z,4.78
2022-09-21T21:49:52.914Z,3.60
2022-09-21T21:52:19.732Z,4.20
2022-09-21T21:54:46.623Z,4.90
2022-09-21T21:57:14.940Z,4.30
2022-09-21T21:59:43.247Z,4.82
2022-09-21T22:02:10.405Z,5.03
2022-09-21T22:04:37.541Z,4.30
2022-09-21T22:07:04.521Z,4.47
2022-09-21T22:09:31.349Z,5.45
2022-09-21T22:12:02.024Z,4.30
2022-09-21T22:14:29.025Z,5.13
2022-09-21T22:16:58.928Z,5.10
2022-09-21T22:19:26.023Z,4.72
2022-09-21T22:21:54.400Z,5.07
2022-09-21T22:24:21.747Z,5.13
2022-09-21T22:26:48.781Z,4.40
2022-09-21T22:29:17.932Z,5.15
2022-09-21T22:31:47.414Z,4.57
2022-09-21T22:34:14.981Z,4.97
2022-09-21T22:36:43.869Z,5.50
2022-09-21T22:39:11.044Z,5.78
2022-09-21T22:41:40.010Z,5.18
2022-09-21T22:44:07.247Z,6.47
2022-09-21T22:46:34.562Z,5.88
2022-09-21T22:49:01.707Z,6.28
2022-09-21T22:51:29.284Z,5.57
2022-09-21T22:53:56.794Z,5.60
2022-09-21T22:56:28.983Z,5.50
2022-09-21T22:58:58.418Z,5.60
2022-09-21T23:01:29.474Z,5.18
2022-09-21T23:03:58.723Z,5.45
2022-09-21T23:06:32.590Z,5.15
2022-09-21T23:09:00.678Z,5.28
2022-09-21T23:11:30.467Z,5.60
2022-09-21T23:13:58.360Z,7.25
2022-09-21T23:16:26.526Z,5.85
2022-09-21T23:18:53.993Z,4.97
2022-09-21T23:21:25.918Z,5.63
2022-09-21T23:23:59.971Z,5.47
2022-09-21T23:26:28.443Z,5.82
2022-09-21T23:29:00.696Z,5.20
2022-09-21T23:31:28.512Z,5.40
2022-09-21T23:33:58.230Z,5.57
2022-09-21T23:36:28.295Z,4.82
2022-09-21T23:38:55.429Z,5.15
2022-09-21T23:41:23.431Z,5.22
2022-09-21T23:43:50.767Z,5.13
2022-09-21T23:46:20.483Z,5.55
2022-09-21T23:48:47.457Z,4.93
2022-09-21T23:51:14.309Z,5.50
2022-09-21T23:53:41.440Z,5.57
2022-09-21T23:56:09.577Z,6.57
2022-09-21T23:58:36.498Z,5.68
